sensor_id;sensor_type;location;lat;lon;timestamp;pressure;altitude;pressure_sealevel;temperature;humidity
21902;BME280;11115;46.038;14.612;2023-05-19T00:01:33;98965.81;;;11.89;100.00
21902;BME280;11115;46.038;14.612;2023-05-19T00:04:09;98964.56;;;11.95;100.00
21902;BME280;11115;46.038;14.612;2023-05-19T00:06:49;98964.66;;;11.90;100.00
21902;BME280;11115;46.038;14.612;2023-05-19T00:09:18;98949.38;;;11.79;100.00
21902;BME280;11115;46.038;14.612;2023-05-19T00:11:47;98969.28;;;11.81;100.00
21902;BME280;11115;46.038;14.612;2023-05-19T00:14:21;98959.03;;;11.81;100.00
21902;BME280;11115;46.038;14.612;2023-05-19T00:16:52;98939.34;;;11.64;100.00
21902;BME280;11115;46.038;14.612;2023-05-19T00:19:27;98970.66;;;11.65;100.00
21902;BME280;11115;46.038;14.612;2023-05-19T00:22:00;98952.56;;;11.53;100.00
21902;BME280;11115;46.038;14.612;2023-05-19T00:24:28;98955.16;;;11.64;100.00
21902;BME280;11115;46.038;14.612;2023-05-19T00:27:02;98958.78;;;11.78;100.00
21902;BME280;11115;46.038;14.612;2023-05-19T00:29:33;98954.75;;;11.70;100.00
21902;BME280;11115;46.038;14.612;2023-05-19T00:32:12;98954.34;;;11.63;100.00
21902;BME280;11115;46.038;14.612;2023-05-19T00:34:49;98953.81;;;11.75;100.00
21902;BME280;11115;46.038;14.612;2023-05-19T00:37:33;98950.41;;;11.83;100.00
21902;BME280;11115;46.038;14.612;2023-05-19T00:40:05;98938.84;;;11.76;100.00
21902;BME280;11115;46.038;14.612;2023-05-19T00:42:34;98949.09;;;11.75;100.00
21902;BME280;11115;46.038;14.612;2023-05-19T00:45:13;98948.13;;;11.85;100.00
21902;BME280;11115;46.038;14.612;2023-05-19T00:47:49;98958.72;;;11.83;100.00
21902;BME280;11115;46.038;14.612;2023-05-19T00:50:26;98945.38;;;11.85;100.00
21902;BME280;11115;46.038;14.612;2023-05-19T00:52:58;98933.75;;;11.83;100.00
21902;BME280;11115;46.038;14.612;2023-05-19T00:55:33;98943.00;;;11.92;100.00
21902;BME280;11115;46.038;14.612;2023-05-19T00:58:12;98950.72;;;11.81;100.00
21902;BME280;11115;46.038;14.612;2023-05-19T01:00:53;98939.16;;;11.74;100.00
21902;BME280;11115;46.038;14.612;2023-05-19T01:03:41;98958.41;;;11.84;100.00
21902;BME280;11115;46.038;14.612;2023-05-19T01:06:27;98951.94;;;11.89;100.00
21902;BME280;11115;46.038;14.612;2023-05-19T01:08:58;98953.69;;;11.85;100.00
21902;BME280;11115;46.038;14.612;2023-05-19T01:11:27;98962.41;;;11.78;100.00
21902;BME280;11115;46.038;14.612;2023-05-19T01:14:13;98968.59;;;11.70;100.00
21902;BME280;11115;46.038;14.612;2023-05-19T01:17:13;98960.09;;;11.67;100.00
21902;BME280;11115;46.038;14.612;2023-05-19T01:32:02;98955.75;;;11.79;100.00
21902;BME280;11115;46.038;14.612;2023-05-19T01:34:41;98955.19;;;11.77;100.00
21902;BME280;11115;46.038;14.612;2023-05-19T01:37:14;98947.34;;;11.66;100.00
21902;BME280;11115;46.038;14.612;2023-05-19T01:39:47;98955.47;;;11.76;100.00
21902;BME280;11115;46.038;14.612;2023-05-19T01:42:31;98954.59;;;11.80;100.00
21902;BME280;11115;46.038;14.612;2023-05-19T01:45:16;98954.00;;;11.83;100.00
21902;BME280;11115;46.038;14.612;2023-05-19T01:47:56;98966.22;;;11.82;100.00
21902;BME280;11115;46.038;14.612;2023-05-19T01:50:45;98962.50;;;11.87;100.00
21902;BME280;11115;46.038;14.612;2023-05-19T01:53:20;98950.22;;;11.74;100.00
21902;BME280;11115;46.038;14.612;2023-05-19T01:55:55;98942.31;;;11.68;100.00
21902;BME280;11115;46.038;14.612;2023-05-19T01:58:47;98954.66;;;11.75;100.00
21902;BME280;11115;46.038;14.612;2023-05-19T02:01:56;98974.31;;;11.79;100.00
21902;BME280;11115;46.038;14.612;2023-05-19T02:04:56;98956.31;;;11.76;100.00
21902;BME280;11115;46.038;14.612;2023-05-19T02:07:51;98956.59;;;11.75;100.00
21902;BME280;11115;46.038;14.612;2023-05-19T02:10:28;98952.28;;;11.69;100.00
21902;BME280;11115;46.038;14.612;2023-05-19T02:13:10;98956.38;;;11.71;100.00
21902;BME280;11115;46.038;14.612;2023-05-19T02:15:41;98953.00;;;11.74;100.00
21902;BME280;11115;46.038;14.612;2023-05-19T02:18:14;98948.56;;;11.78;100.00
21902;BME280;11115;46.038;14.612;2023-05-19T02:20:52;98953.25;;;11.78;100.00
21902;BME280;11115;46.038;14.612;2023-05-19T02:23:22;98950.72;;;11.81;100.00
21902;BME280;11115;46.038;14.612;2023-05-19T02:26:00;98952.34;;;11.82;100.00
21902;BME280;11115;46.038;14.612;2023-05-19T02:28:35;98942.81;;;11.89;100.00
21902;BME280;11115;46.038;14.612;2023-05-19T02:31:07;98941.06;;;11.93;100.00
21902;BME280;11115;46.038;14.612;2023-05-19T02:33:39;98947.41;;;11.93;100.00
21902;BME280;11115;46.038;14.612;2023-05-19T02:36:11;98935.50;;;11.79;100.00
21902;BME280;11115;46.038;14.612;2023-05-19T02:38:48;98940.34;;;11.87;100.00
21902;BME280;11115;46.038;14.612;2023-05-19T02:41:20;98922.22;;;11.76;100.00
21902;BME280;11115;46.038;14.612;2023-05-19T02:43:51;98943.94;;;11.88;100.00
21902;BME280;11115;46.038;14.612;2023-05-19T02:46:23;98947.53;;;11.88;100.00
21902;BME280;11115;46.038;14.612;2023-05-19T02:49:00;98944.25;;;11.86;100.00
21902;BME280;11115;46.038;14.612;2023-05-19T02:51:35;98950.09;;;11.84;100.00
21902;BME280;11115;46.038;14.612;2023-05-19T02:54:03;98946.88;;;11.77;100.00
21902;BME280;11115;46.038;14.612;2023-05-19T02:56:35;98941.56;;;11.81;100.00
21902;BME280;11115;46.038;14.612;2023-05-19T02:59:11;98931.13;;;11.73;100.00
21902;BME280;11115;46.038;14.612;2023-05-19T03:02:00;98932.19;;;11.77;100.00
21902;BME280;11115;46.038;14.612;2023-05-19T03:04:33;98901.72;;;11.77;100.00
21902;BME280;11115;46.038;14.612;2023-05-19T03:07:16;98921.75;;;11.88;100.00
21902;BME280;11115;46.038;14.612;2023-05-19T03:09:53;98916.41;;;11.91;100.00
21902;BME280;11115;46.038;14.612;2023-05-19T03:12:22;98920.81;;;11.92;100.00
21902;BME280;11115;46.038;14.612;2023-05-19T03:14:55;98923.91;;;11.91;100.00
21902;BME280;11115;46.038;14.612;2023-05-19T03:17:27;98920.75;;;11.97;100.00
21902;BME280;11115;46.038;14.612;2023-05-19T03:20:04;98925.75;;;11.95;100.00
21902;BME280;11115;46.038;14.612;2023-05-19T03:22:42;98929.03;;;11.83;100.00
21902;BME280;11115;46.038;14.612;2023-05-19T03:25:16;98935.63;;;11.88;100.00
21902;BME280;11115;46.038;14.612;2023-05-19T03:27:46;98928.84;;;11.94;100.00
21902;BME280;11115;46.038;14.612;2023-05-19T03:30:20;98933.25;;;11.95;100.00
21902;BME280;11115;46.038;14.612;2023-05-19T03:33:10;98939.03;;;11.98;100.00
21902;BME280;11115;46.038;14.612;2023-05-19T03:35:45;98910.16;;;11.85;100.00
21902;BME280;11115;46.038;14.612;2023-05-19T03:38:32;98922.06;;;11.86;100.00
21902;BME280;11115;46.038;14.612;2023-05-19T03:41:06;98932.34;;;11.99;100.00
21902;BME280;11115;46.038;14.612;2023-05-19T03:43:37;98935.75;;;11.96;100.00
21902;BME280;11115;46.038;14.612;2023-05-19T03:46:14;98941.88;;;11.93;100.00
21902;BME280;11115;46.038;14.612;2023-05-19T03:48:48;98936.31;;;11.93;100.00
21902;BME280;11115;46.038;14.612;2023-05-19T03:51:39;98943.00;;;11.92;100.00
21902;BME280;11115;46.038;14.612;2023-05-19T03:54:32;98935.50;;;11.93;100.00
21902;BME280;11115;46.038;14.612;2023-05-19T03:57:05;98946.41;;;11.89;100.00
21902;BME280;11115;46.038;14.612;2023-05-19T03:59:43;98940.34;;;11.87;100.00
21902;BME280;11115;46.038;14.612;2023-05-19T04:02:17;98940.34;;;11.87;100.00
21902;BME280;11115;46.038;14.612;2023-05-19T04:04:52;98950.91;;;11.85;100.00
21902;BME280;11115;46.038;14.612;2023-05-19T04:07:25;98946.69;;;11.88;100.00
21902;BME280;11115;46.038;14.612;2023-05-19T04:09:58;98953.88;;;11.89;100.00
21902;BME280;11115;46.038;14.612;2023-05-19T04:12:33;98941.97;;;11.88;100.00
21902;BME280;11115;46.038;14.612;2023-05-19T04:15:06;98945.25;;;11.90;100.00
21902;BME280;11115;46.038;14.612;2023-05-19T04:17:41;98939.91;;;11.94;100.00
21902;BME280;11115;46.038;14.612;2023-05-19T04:20:11;98948.16;;;11.99;100.00
21902;BME280;11115;46.038;14.612;2023-05-19T04:22:50;98947.66;;;11.97;100.00
21902;BME280;11115;46.038;14.612;2023-05-19T04:25:22;98943.34;;;12.04;100.00
21902;BME280;11115;46.038;14.612;2023-05-19T04:27:59;98945.28;;;12.04;100.00
21902;BME280;11115;46.038;14.612;2023-05-19T04:30:30;98952.28;;;12.01;100.00
21902;BME280;11115;46.038;14.612;2023-05-19T04:33:02;98920.31;;;11.90;100.00
21902;BME280;11115;46.038;14.612;2023-05-19T04:35:35;98953.50;;;12.09;100.00
21902;BME280;11115;46.038;14.612;2023-05-19T04:38:09;98949.19;;;12.17;100.00
21902;BME280;11115;46.038;14.612;2023-05-19T04:40:41;98955.16;;;12.24;100.00
21902;BME280;11115;46.038;14.612;2023-05-19T04:43:15;98945.19;;;12.23;100.00
21902;BME280;11115;46.038;14.612;2023-05-19T04:46:01;98897.75;;;11.97;100.00
21902;BME280;11115;46.038;14.612;2023-05-19T04:48:45;98943.22;;;12.37;100.00
21902;BME280;11115;46.038;14.612;2023-05-19T04:51:17;98944.13;;;12.32;100.00
21902;BME280;11115;46.038;14.612;2023-05-19T04:53:49;98943.13;;;12.28;100.00
21902;BME280;11115;46.038;14.612;2023-05-19T04:56:22;98944.13;;;12.32;100.00
21902;BME280;11115;46.038;14.612;2023-05-19T04:58:57;98934.91;;;12.37;100.00
21902;BME280;11115;46.038;14.612;2023-05-19T05:01:43;98941.59;;;12.36;100.00
21902;BME280;11115;46.038;14.612;2023-05-19T05:04:18;98945.38;;;12.40;100.00
21902;BME280;11115;46.038;14.612;2023-05-19T05:06:52;98940.78;;;12.35;100.00
21902;BME280;11115;46.038;14.612;2023-05-19T05:09:22;98926.78;;;12.27;100.00
21902;BME280;11115;46.038;14.612;2023-05-19T05:12:04;98951.44;;;12.28;100.00
21902;BME280;11115;46.038;14.612;2023-05-19T05:14:39;98948.56;;;12.33;100.00
21902;BME280;11115;46.038;14.612;2023-05-19T05:17:20;98947.22;;;12.31;100.00
21902;BME280;11115;46.038;14.612;2023-05-19T05:19:57;98868.38;;;11.96;100.00
21902;BME280;11115;46.038;14.612;2023-05-19T05:22:37;98949.38;;;12.48;100.00
21902;BME280;11115;46.038;14.612;2023-05-19T05:25:13;98927.91;;;12.26;100.00
21902;BME280;11115;46.038;14.612;2023-05-19T05:27:52;98953.69;;;12.54;100.00
21902;BME280;11115;46.038;14.612;2023-05-19T05:30:25;98952.44;;;12.60;100.00
21902;BME280;11115;46.038;14.612;2023-05-19T05:32:56;98943.69;;;12.53;100.00
21902;BME280;11115;46.038;14.612;2023-05-19T05:35:33;98947.94;;;12.50;100.00
21902;BME280;11115;46.038;14.612;2023-05-19T05:38:07;98958.94;;;12.55;100.00
21902;BME280;11115;46.038;14.612;2023-05-19T05:40:42;98953.06;;;12.57;100.00
21902;BME280;11115;46.038;14.612;2023-05-19T05:43:12;98956.16;;;12.55;100.00
21902;BME280;11115;46.038;14.612;2023-05-19T05:45:50;98959.25;;;12.54;100.00
21902;BME280;11115;46.038;14.612;2023-05-19T05:48:27;98960.66;;;12.65;100.00
21902;BME280;11115;46.038;14.612;2023-05-19T05:50:58;98965.59;;;12.68;100.00
21902;BME280;11115;46.038;14.612;2023-05-19T05:53:44;98958.69;;;12.65;100.00
21902;BME280;11115;46.038;14.612;2023-05-19T05:56:16;98966.59;;;12.72;100.00
21902;BME280;11115;46.038;14.612;2023-05-19T05:58:52;98969.59;;;12.75;100.00
21902;BME280;11115;46.038;14.612;2023-05-19T06:01:27;98972.56;;;12.79;100.00
21902;BME280;11115;46.038;14.612;2023-05-19T06:04:10;98961.16;;;12.67;100.00
21902;BME280;11115;46.038;14.612;2023-05-19T06:06:54;98974.00;;;12.76;100.00
21902;BME280;11115;46.038;14.612;2023-05-19T06:09:34;98980.69;;;12.75;100.00
21902;BME280;11115;46.038;14.612;2023-05-19T06:12:13;98982.84;;;12.79;100.00
21902;BME280;11115;46.038;14.612;2023-05-19T06:14:52;98990.34;;;12.78;100.00
21902;BME280;11115;46.038;14.612;2023-05-19T06:17:41;98976.28;;;12.74;100.00
21902;BME280;11115;46.038;14.612;2023-05-19T06:20:13;98978.75;;;12.76;100.00
21902;BME280;11115;46.038;14.612;2023-05-19T06:22:44;98985.00;;;12.82;100.00
21902;BME280;11115;46.038;14.612;2023-05-19T06:25:26;98988.59;;;12.82;100.00
21902;BME280;11115;46.038;14.612;2023-05-19T06:28:00;98983.88;;;12.83;100.00
21902;BME280;11115;46.038;14.612;2023-05-19T06:30:39;98990.31;;;12.92;100.00
21902;BME280;11115;46.038;14.612;2023-05-19T06:33:38;98951.00;;;12.62;100.00
21902;BME280;11115;46.038;14.612;2023-05-19T06:36:12;98998.63;;;12.92;100.00
21902;BME280;11115;46.038;14.612;2023-05-19T06:38:50;98997.22;;;12.94;100.00
21902;BME280;11115;46.038;14.612;2023-05-19T06:41:30;99000.91;;;12.90;100.00
21902;BME280;11115;46.038;14.612;2023-05-19T06:44:08;98996.19;;;12.90;100.00
21902;BME280;11115;46.038;14.612;2023-05-19T06:46:50;98935.91;;;12.55;100.00
21902;BME280;11115;46.038;14.612;2023-05-19T06:49:23;99000.31;;;12.93;100.00
21902;BME280;11115;46.038;14.612;2023-05-19T06:52:11;99003.78;;;12.98;100.00
21902;BME280;11115;46.038;14.612;2023-05-19T06:54:42;98999.69;;;12.96;100.00
21902;BME280;11115;46.038;14.612;2023-05-19T06:57:13;99004.38;;;13.09;100.00
21902;BME280;11115;46.038;14.612;2023-05-19T06:59:47;99004.09;;;12.97;100.00
21902;BME280;11115;46.038;14.612;2023-05-19T07:02:18;98952.94;;;12.75;100.00
21902;BME280;11115;46.038;14.612;2023-05-19T07:05:04;98993.78;;;13.11;100.00
21902;BME280;11115;46.038;14.612;2023-05-19T07:07:40;99008.28;;;13.22;100.00
21902;BME280;11115;46.038;14.612;2023-05-19T07:10:18;99005.38;;;13.27;100.00
21902;BME280;11115;46.038;14.612;2023-05-19T07:13:02;99004.16;;;13.19;100.00
21902;BME280;11115;46.038;14.612;2023-05-19T07:15:53;99011.16;;;13.30;100.00
21902;BME280;11115;46.038;14.612;2023-05-19T07:18:33;98992.63;;;13.26;100.00
21902;BME280;11115;46.038;14.612;2023-05-19T07:21:11;98997.56;;;13.15;100.00
21902;BME280;11115;46.038;14.612;2023-05-19T07:23:43;98995.59;;;13.29;100.00
21902;BME280;11115;46.038;14.612;2023-05-19T07:26:19;99002.22;;;13.42;100.00
21902;BME280;11115;46.038;14.612;2023-05-19T07:29:13;98943.66;;;13.16;100.00
21902;BME280;11115;46.038;14.612;2023-05-19T07:31:46;99001.91;;;13.44;100.00
21902;BME280;11115;46.038;14.612;2023-05-19T07:34:19;98990.06;;;13.52;100.00
21902;BME280;11115;46.038;14.612;2023-05-19T07:36:51;99000.44;;;13.68;100.00
21902;BME280;11115;46.038;14.612;2023-05-19T07:39:20;98985.31;;;13.75;100.00
21902;BME280;11115;46.038;14.612;2023-05-19T07:41:58;98994.31;;;13.80;100.00
21902;BME280;11115;46.038;14.612;2023-05-19T07:44:41;98993.63;;;13.75;100.00
21902;BME280;11115;46.038;14.612;2023-05-19T07:47:11;98991.75;;;13.61;100.00
21902;BME280;11115;46.038;14.612;2023-05-19T07:49:43;98996.59;;;13.78;100.00
21902;BME280;11115;46.038;14.612;2023-05-19T07:52:21;98993.81;;;13.78;100.00
21902;BME280;11115;46.038;14.612;2023-05-19T07:55:03;98987.94;;;13.80;100.00
21902;BME280;11115;46.038;14.612;2023-05-19T07:57:41;98988.13;;;13.83;100.00
21902;BME280;11115;46.038;14.612;2023-05-19T08:00:11;98985.97;;;13.80;100.00
21902;BME280;11115;46.038;14.612;2023-05-19T08:02:41;98992.47;;;13.98;100.00
21902;BME280;11115;46.038;14.612;2023-05-19T08:05:15;98984.94;;;13.98;100.00
21902;BME280;11115;46.038;14.612;2023-05-19T08:07:46;98984.03;;;14.12;100.00
21902;BME280;11115;46.038;14.612;2023-05-19T08:10:19;98983.22;;;14.11;100.00
21902;BME280;11115;46.038;14.612;2023-05-19T08:12:49;98972.19;;;14.06;100.00
21902;BME280;11115;46.038;14.612;2023-05-19T08:15:20;98981.06;;;14.08;100.00
21902;BME280;11115;46.038;14.612;2023-05-19T08:17:54;98979.22;;;14.04;100.00
21902;BME280;11115;46.038;14.612;2023-05-19T08:20:32;98983.13;;;13.94;100.00
21902;BME280;11115;46.038;14.612;2023-05-19T08:23:01;98979.06;;;14.00;100.00
21902;BME280;11115;46.038;14.612;2023-05-19T08:25:34;98983.28;;;13.97;100.00
21902;BME280;11115;46.038;14.612;2023-05-19T08:28:10;98978.22;;;13.68;100.00
21902;BME280;11115;46.038;14.612;2023-05-19T08:30:42;98986.16;;;13.84;100.00
21902;BME280;11115;46.038;14.612;2023-05-19T08:33:18;98967.94;;;13.69;100.00
21902;BME280;11115;46.038;14.612;2023-05-19T08:35:51;98972.03;;;14.03;100.00
21902;BME280;11115;46.038;14.612;2023-05-19T08:38:26;98980.53;;;14.37;100.00
21902;BME280;11115;46.038;14.612;2023-05-19T08:41:03;98976.91;;;14.68;100.00
21902;BME280;11115;46.038;14.612;2023-05-19T08:43:48;98982.34;;;14.99;100.00
21902;BME280;11115;46.038;14.612;2023-05-19T08:46:24;98948.22;;;14.84;100.00
21902;BME280;11115;46.038;14.612;2023-05-19T08:49:12;98967.28;;;14.91;100.00
21902;BME280;11115;46.038;14.612;2023-05-19T08:58:03;98971.06;;;15.30;100.00
21902;BME280;11115;46.038;14.612;2023-05-19T09:00:40;98957.59;;;15.14;100.00
21902;BME280;11115;46.038;14.612;2023-05-19T09:03:12;98968.94;;;15.09;100.00
21902;BME280;11115;46.038;14.612;2023-05-19T09:05:50;98965.13;;;15.23;100.00
21902;BME280;11115;46.038;14.612;2023-05-19T09:08:28;98942.34;;;15.03;100.00
21902;BME280;11115;46.038;14.612;2023-05-19T09:10:58;98944.16;;;14.99;100.00
21902;BME280;11115;46.038;14.612;2023-05-19T09:13:31;98977.63;;;15.08;100.00
21902;BME280;11115;46.038;14.612;2023-05-19T09:16:10;98973.81;;;15.04;100.00
21902;BME280;11115;46.038;14.612;2023-05-19T09:18:56;98966.28;;;14.87;100.00
21902;BME280;11115;46.038;14.612;2023-05-19T09:21:32;98964.13;;;14.67;100.00
21902;BME280;11115;46.038;14.612;2023-05-19T09:24:08;98961.19;;;14.72;100.00
21902;BME280;11115;46.038;14.612;2023-05-19T09:26:42;98978.41;;;15.00;100.00
21902;BME280;11115;46.038;14.612;2023-05-19T09:29:17;98979.88;;;14.97;100.00
21902;BME280;11115;46.038;14.612;2023-05-19T09:32:07;98973.31;;;14.84;100.00
21902;BME280;11115;46.038;14.612;2023-05-19T09:34:40;98957.53;;;14.54;100.00
21902;BME280;11115;46.038;14.612;2023-05-19T09:37:12;98953.75;;;14.50;100.00
21902;BME280;11115;46.038;14.612;2023-05-19T09:39:45;98965.28;;;14.74;100.00
21902;BME280;11115;46.038;14.612;2023-05-19T09:42:27;98972.34;;;14.89;100.00
21902;BME280;11115;46.038;14.612;2023-05-19T09:45:05;98962.69;;;14.95;100.00
21902;BME280;11115;46.038;14.612;2023-05-19T09:47:40;98952.50;;;14.82;100.00
21902;BME280;11115;46.038;14.612;2023-05-19T09:50:24;98949.06;;;15.02;100.00
21902;BME280;11115;46.038;14.612;2023-05-19T09:52:58;98950.56;;;15.43;100.00
21902;BME280;11115;46.038;14.612;2023-05-19T09:55:42;98936.59;;;16.16;100.00
21902;BME280;11115;46.038;14.612;2023-05-19T09:58:30;98941.59;;;16.39;100.00
21902;BME280;11115;46.038;14.612;2023-05-19T10:01:10;98932.56;;;16.34;100.00
21902;BME280;11115;46.038;14.612;2023-05-19T10:03:39;98939.28;;;16.42;100.00
21902;BME280;11115;46.038;14.612;2023-05-19T10:06:16;98941.47;;;16.27;100.00
21902;BME280;11115;46.038;14.612;2023-05-19T10:08:49;98937.13;;;16.09;100.00
21902;BME280;11115;46.038;14.612;2023-05-19T10:11:19;98928.13;;;15.95;100.00
21902;BME280;11115;46.038;14.612;2023-05-19T10:13:54;98948.34;;;15.92;100.00
21902;BME280;11115;46.038;14.612;2023-05-19T10:16:29;98919.81;;;15.77;100.00
21902;BME280;11115;46.038;14.612;2023-05-19T10:19:03;98953.28;;;15.77;100.00
21902;BME280;11115;46.038;14.612;2023-05-19T10:21:37;98955.59;;;15.75;100.00
21902;BME280;11115;46.038;14.612;2023-05-19T10:24:09;98957.09;;;15.56;100.00
21902;BME280;11115;46.038;14.612;2023-05-19T10:26:41;98951.34;;;15.61;100.00
21902;BME280;11115;46.038;14.612;2023-05-19T10:29:23;98948.06;;;15.76;100.00
21902;BME280;11115;46.038;14.612;2023-05-19T10:32:25;98943.78;;;15.78;100.00
21902;BME280;11115;46.038;14.612;2023-05-19T10:38:47;98947.91;;;15.81;100.00
21902;BME280;11115;46.038;14.612;2023-05-19T10:45:01;98932.31;;;15.71;100.00
21902;BME280;11115;46.038;14.612;2023-05-19T10:47:28;98932.28;;;15.80;100.00
21902;BME280;11115;46.038;14.612;2023-05-19T10:50:03;98934.91;;;15.85;100.00
21902;BME280;11115;46.038;14.612;2023-05-19T10:52:39;98925.84;;;15.97;100.00
21902;BME280;11115;46.038;14.612;2023-05-19T10:55:13;98928.97;;;15.95;100.00
21902;BME280;11115;46.038;14.612;2023-05-19T10:57:54;98925.63;;;16.11;100.00
21902;BME280;11115;46.038;14.612;2023-05-19T11:00:30;98927.25;;;16.20;100.00
21902;BME280;11115;46.038;14.612;2023-05-19T11:03:20;98920.91;;;16.41;100.00
21902;BME280;11115;46.038;14.612;2023-05-19T11:05:52;98902.34;;;16.36;100.00
21902;BME280;11115;46.038;14.612;2023-05-19T11:08:33;98908.66;;;16.24;100.00
21902;BME280;11115;46.038;14.612;2023-05-19T11:11:16;98908.94;;;16.02;100.00
21902;BME280;11115;46.038;14.612;2023-05-19T11:13:53;98903.75;;;16.21;100.00
21902;BME280;11115;46.038;14.612;2023-05-19T11:16:33;98896.63;;;16.32;100.00
21902;BME280;11115;46.038;14.612;2023-05-19T11:19:07;98894.31;;;16.34;100.00
21902;BME280;11115;46.038;14.612;2023-05-19T11:24:46;98895.63;;;16.66;100.00
21902;BME280;11115;46.038;14.612;2023-05-19T11:27:34;98855.16;;;16.22;100.00
21902;BME280;11115;46.038;14.612;2023-05-19T11:30:09;98887.59;;;15.97;100.00
21902;BME280;11115;46.038;14.612;2023-05-19T11:32:40;98892.00;;;16.07;100.00
21902;BME280;11115;46.038;14.612;2023-05-19T11:35:18;98883.00;;;16.01;100.00
21902;BME280;11115;46.038;14.612;2023-05-19T11:37:48;98863.25;;;16.06;100.00
21902;BME280;11115;46.038;14.612;2023-05-19T11:40:22;98881.84;;;16.32;100.00
21902;BME280;11115;46.038;14.612;2023-05-19T11:43:01;98886.81;;;16.26;100.00
21902;BME280;11115;46.038;14.612;2023-05-19T11:45:31;98887.97;;;16.25;100.00
21902;BME280;11115;46.038;14.612;2023-05-19T11:48:11;98878.81;;;16.16;100.00
21902;BME280;11115;46.038;14.612;2023-05-19T11:50:45;98873.69;;;16.18;100.00
21902;BME280;11115;46.038;14.612;2023-05-19T11:53:17;98875.72;;;16.09;100.00
21902;BME280;11115;46.038;14.612;2023-05-19T11:55:54;98872.06;;;15.88;100.00
21902;BME280;11115;46.038;14.612;2023-05-19T11:58:26;98862.75;;;15.75;100.00
21902;BME280;11115;46.038;14.612;2023-05-19T12:01:02;98876.19;;;15.82;100.00
21902;BME280;11115;46.038;14.612;2023-05-19T12:03:33;98864.41;;;15.67;100.00
21902;BME280;11115;46.038;14.612;2023-05-19T12:06:05;98875.25;;;15.69;100.00
21902;BME280;11115;46.038;14.612;2023-05-19T12:08:44;98874.41;;;15.68;100.00
21902;BME280;11115;46.038;14.612;2023-05-19T12:11:14;98866.25;;;15.63;100.00
21902;BME280;11115;46.038;14.612;2023-05-19T12:13:46;98857.19;;;15.66;100.00
21902;BME280;11115;46.038;14.612;2023-05-19T12:16:19;98855.56;;;15.65;100.00
21902;BME280;11115;46.038;14.612;2023-05-19T12:18:52;98860.16;;;15.61;100.00
21902;BME280;11115;46.038;14.612;2023-05-19T12:21:33;98858.03;;;15.67;100.00
21902;BME280;11115;46.038;14.612;2023-05-19T12:24:08;98853.88;;;15.82;100.00
21902;BME280;11115;46.038;14.612;2023-05-19T12:26:40;98849.41;;;15.89;100.00
21902;BME280;11115;46.038;14.612;2023-05-19T12:29:12;98861.19;;;15.95;100.00
21902;BME280;11115;46.038;14.612;2023-05-19T12:31:48;98853.97;;;15.94;100.00
21902;BME280;11115;46.038;14.612;2023-05-19T12:34:24;98852.13;;;15.98;100.00
21902;BME280;11115;46.038;14.612;2023-05-19T12:37:02;98856.47;;;15.87;100.00
21902;BME280;11115;46.038;14.612;2023-05-19T12:39:32;98824.06;;;15.65;100.00
21902;BME280;11115;46.038;14.612;2023-05-19T12:42:09;98842.25;;;15.71;100.00
21902;BME280;11115;46.038;14.612;2023-05-19T12:44:43;98842.25;;;15.71;100.00
21902;BME280;11115;46.038;14.612;2023-05-19T12:47:34;98848.34;;;15.64;100.00
21902;BME280;11115;46.038;14.612;2023-05-19T12:50:14;98848.19;;;15.61;100.00
21902;BME280;11115;46.038;14.612;2023-05-19T12:52:48;98842.28;;;15.62;100.00
21902;BME280;11115;46.038;14.612;2023-05-19T12:55:23;98823.75;;;15.49;100.00
21902;BME280;11115;46.038;14.612;2023-05-19T12:57:56;98838.66;;;15.53;100.00
21902;BME280;11115;46.038;14.612;2023-05-19T13:00:28;98840.69;;;15.35;100.00
21902;BME280;11115;46.038;14.612;2023-05-19T13:03:16;98836.44;;;15.21;100.00
21902;BME280;11115;46.038;14.612;2023-05-19T13:05:52;98843.34;;;15.14;100.00
21902;BME280;11115;46.038;14.612;2023-05-19T13:08:27;98836.78;;;15.19;100.00
21902;BME280;11115;46.038;14.612;2023-05-19T13:11:06;98844.66;;;15.17;100.00
21902;BME280;11115;46.038;14.612;2023-05-19T13:13:42;98849.09;;;15.09;100.00
21902;BME280;11115;46.038;14.612;2023-05-19T13:16:15;98848.44;;;15.12;100.00
21902;BME280;11115;46.038;14.612;2023-05-19T13:18:49;98847.13;;;15.18;100.00
21902;BME280;11115;46.038;14.612;2023-05-19T13:21:29;98852.53;;;15.15;100.00
21902;BME280;11115;46.038;14.612;2023-05-19T13:23:58;98845.47;;;15.17;100.00
21902;BME280;11115;46.038;14.612;2023-05-19T13:26:29;98792.44;;;14.88;100.00
21902;BME280;11115;46.038;14.612;2023-05-19T13:28:58;98832.03;;;15.28;100.00
21902;BME280;11115;46.038;14.612;2023-05-19T13:31:34;98843.63;;;15.39;100.00
21902;BME280;11115;46.038;14.612;2023-05-19T13:34:06;98836.44;;;15.21;100.00
21902;BME280;11115;46.038;14.612;2023-05-19T13:36:39;98847.25;;;15.22;100.00
21902;BME280;11115;46.038;14.612;2023-05-19T13:39:18;98833.38;;;15.13;100.00
21902;BME280;11115;46.038;14.612;2023-05-19T13:42:05;98836.47;;;15.12;100.00
21902;BME280;11115;46.038;14.612;2023-05-19T13:44:44;98845.50;;;15.09;100.00
21902;BME280;11115;46.038;14.612;2023-05-19T13:47:15;98845.34;;;15.05;100.00
21902;BME280;11115;46.038;14.612;2023-05-19T13:49:45;98847.63;;;15.03;100.00
21902;BME280;11115;46.038;14.612;2023-05-19T13:52:18;98847.63;;;15.03;100.00
21902;BME280;11115;46.038;14.612;2023-05-19T13:54:55;98845.00;;;14.98;100.00
21902;BME280;11115;46.038;14.612;2023-05-19T13:57:30;98847.78;;;14.98;100.00